createdAt,value
2023-05-12T00:00:31.064Z,81.71
2023-05-12T00:02:57.382Z,82.19
2023-05-12T00:05:23.977Z,82.91
2023-05-12T00:07:50.270Z,82.34
2023-05-12T00:10:16.679Z,82.48
2023-05-12T00:12:43.121Z,83.16
2023-05-12T00:15:10.037Z,82.98
2023-05-12T00:17:36.640Z,82.10
2023-05-12T00:20:03.224Z,82.25
2023-05-12T00:22:29.582Z,83.02
2023-05-12T00:24:56.004Z,82.97
2023-05-12T00:27:22.959Z,82.83
2023-05-12T00:29:49.618Z,83.17
2023-05-12T00:32:16.021Z,82.70
2023-05-12T00:34:42.317Z,82.98
2023-05-12T00:37:10.119Z,82.80
2023-05-12T00:39:36.410Z,83.06
2023-05-12T00:42:02.777Z,83.20
2023-05-12T00:44:29.088Z,83.11
2023-05-12T00:46:55.488Z,82.77
2023-05-12T00:49:22.096Z,82.65
2023-05-12T00:51:48.495Z,82.81
2023-05-12T00:54:16.040Z,82.81
2023-05-12T00:56:42.402Z,82.35
2023-05-12T00:59:09.050Z,82.39
2023-05-12T01:01:35.922Z,81.80
2023-05-12T01:04:02.952Z,82.22
2023-05-12T01:06:37.784Z,82.14
2023-05-12T01:09:04.563Z,81.86
2023-05-12T01:11:30.887Z,83.26
2023-05-12T01:13:57.260Z,82.86
2023-05-12T01:16:28.882Z,82.92
2023-05-12T01:18:56.690Z,82.92
2023-05-12T01:21:23.172Z,83.16
2023-05-12T01:23:56.822Z,82.88
2023-05-12T01:26:23.725Z,83.53
2023-05-12T01:28:51.142Z,83.00
2023-05-12T01:31:20.251Z,83.70
2023-05-12T01:33:47.392Z,82.88
2023-05-12T01:36:13.724Z,82.83
2023-05-12T01:38:40.112Z,82.53
2023-05-12T01:41:06.415Z,82.17
2023-05-12T01:43:32.735Z,82.21
2023-05-12T01:45:59.266Z,82.59
2023-05-12T01:48:25.809Z,82.42
2023-05-12T01:50:52.180Z,83.21
2023-05-12T01:53:18.444Z,82.45
2023-05-12T01:55:44.787Z,82.26
2023-05-12T01:58:11.251Z,82.89
2023-05-12T02:00:37.930Z,82.41
2023-05-12T02:03:04.323Z,82.37
2023-05-12T02:05:30.720Z,82.79
2023-05-12T02:07:57.097Z,82.71
2023-05-12T02:10:23.586Z,82.52
2023-05-12T02:12:50.054Z,83.62
2023-05-12T02:15:16.356Z,82.46
2023-05-12T02:17:42.804Z,82.80
2023-05-12T02:20:09.695Z,82.37
2023-05-12T02:22:36.002Z,82.38
2023-05-12T02:25:02.470Z,82.40
2023-05-12T02:27:28.797Z,82.52
2023-05-12T02:29:55.208Z,83.79
2023-05-12T02:32:21.502Z,82.45
2023-05-12T02:34:47.805Z,82.58
2023-05-12T02:37:14.303Z,82.10
2023-05-12T02:39:40.569Z,82.21
2023-05-12T02:42:07.168Z,82.01
2023-05-12T02:44:33.564Z,82.42
2023-05-12T02:46:59.845Z,82.59
2023-05-12T02:49:26.203Z,82.72
2023-05-12T02:51:52.508Z,81.90
2023-05-12T02:54:18.831Z,82.09
2023-05-12T02:56:45.195Z,81.88
2023-05-12T02:59:11.497Z,82.35
2023-05-12T03:01:38.081Z,82.33
2023-05-12T03:04:04.578Z,82.11
2023-05-12T03:06:30.954Z,82.14
2023-05-12T03:08:57.410Z,81.88
2023-05-12T03:11:23.745Z,82.25
2023-05-12T03:13:50.044Z,82.04
2023-05-12T03:16:17.808Z,81.73
2023-05-12T03:18:45.186Z,82.40
2023-05-12T03:21:11.581Z,82.07
2023-05-12T03:23:37.893Z,81.78
2023-05-12T03:26:04.214Z,81.99
2023-05-12T03:28:30.672Z,81.80
2023-05-12T03:30:56.980Z,81.44
2023-05-12T03:33:23.408Z,81.79
2023-05-12T03:35:49.699Z,82.07
2023-05-12T03:38:16.089Z,82.23
2023-05-12T03:40:42.376Z,82.84
2023-05-12T03:43:08.656Z,82.27
2023-05-12T03:45:34.957Z,81.72
2023-05-12T03:48:01.270Z,82.26
2023-05-12T03:50:27.740Z,82.00
2023-05-12T03:52:54.129Z,82.08
2023-05-12T03:55:20.440Z,82.11
2023-05-12T03:57:48.069Z,82.35
2023-05-12T04:00:14.679Z,82.57
2023-05-12T04:02:41.029Z,82.52
2023-05-12T04:05:07.776Z,82.50
2023-05-12T04:07:34.092Z,82.61
2023-05-12T04:10:00.554Z,82.38
2023-05-12T04:12:26.849Z,82.36
2023-05-12T04:14:53.767Z,82.21
2023-05-12T04:17:20.127Z,82.68
2023-05-12T04:19:46.472Z,82.41
2023-05-12T04:22:12.820Z,82.23
2023-05-12T04:24:39.086Z,82.33
2023-05-12T04:27:06.386Z,82.56
2023-05-12T04:29:32.768Z,81.93
2023-05-12T04:31:59.181Z,82.22
2023-05-12T04:34:25.513Z,82.12
2023-05-12T04:36:51.818Z,82.51
2023-05-12T04:39:18.226Z,82.49
2023-05-12T04:41:44.489Z,82.59
2023-05-12T04:44:10.819Z,82.59
2023-05-12T04:46:37.241Z,82.61
2023-05-12T04:49:03.561Z,82.54
2023-05-12T04:51:29.912Z,82.22
2023-05-12T04:53:56.197Z,81.88
2023-05-12T04:56:22.481Z,82.25
2023-05-12T04:58:48.886Z,81.59
2023-05-12T05:01:15.284Z,81.84
2023-05-12T05:03:41.735Z,81.06
2023-05-12T05:06:08.122Z,81.26
2023-05-12T05:08:34.508Z,81.27
2023-05-12T05:11:00.820Z,81.69
2023-05-12T05:13:27.119Z,81.06
2023-05-12T05:15:54.404Z,81.67
2023-05-12T05:18:23.792Z,81.58
2023-05-12T05:20:57.284Z,81.63
2023-05-12T05:23:25.059Z,81.38
2023-05-12T05:25:51.391Z,82.05
2023-05-12T05:28:17.693Z,81.42
2023-05-12T05:30:44.072Z,81.21
2023-05-12T05:33:10.429Z,80.78
2023-05-12T05:35:36.815Z,80.70
2023-05-12T05:38:03.170Z,80.91
2023-05-12T05:40:33.815Z,80.17
2023-05-12T05:43:05.278Z,80.46
2023-05-12T05:45:31.811Z,80.11
2023-05-12T05:47:58.124Z,80.35
2023-05-12T05:50:24.473Z,79.83
2023-05-12T05:52:50.800Z,79.99
2023-05-12T05:55:17.299Z,79.96
2023-05-12T05:57:43.698Z,79.93
2023-05-12T06:00:10.562Z,79.74
2023-05-12T06:02:36.998Z,79.76
2023-05-12T06:05:03.557Z,80.07
2023-05-12T06:07:29.872Z,79.96
2023-05-12T06:09:56.123Z,79.93
2023-05-12T06:12:22.441Z,79.60
2023-05-12T06:14:48.725Z,79.22
2023-05-12T06:17:15.070Z,79.52
2023-05-12T06:19:41.445Z,79.13
2023-05-12T06:22:07.733Z,78.10
2023-05-12T06:24:34.025Z,78.78
2023-05-12T06:27:00.384Z,79.10
2023-05-12T06:29:26.742Z,79.10
2023-05-12T06:31:53.295Z,78.81
2023-05-12T06:34:20.162Z,78.44
2023-05-12T06:36:46.564Z,78.64
2023-05-12T06:39:12.962Z,78.06
2023-05-12T06:41:39.327Z,78.37
2023-05-12T06:44:05.664Z,77.94
2023-05-12T06:46:32.596Z,78.15
2023-05-12T06:48:59.304Z,78.21
2023-05-12T06:51:26.087Z,78.28
2023-05-12T06:53:52.396Z,77.97
2023-05-12T06:56:18.689Z,77.43
2023-05-12T06:58:45.002Z,77.53
2023-05-12T07:01:11.353Z,77.35
2023-05-12T07:03:37.778Z,76.01
2023-05-12T07:06:04.457Z,76.73
2023-05-12T07:08:30.831Z,77.11
2023-05-12T07:10:59.933Z,77.50
2023-05-12T07:13:26.463Z,76.80
2023-05-12T07:15:52.793Z,77.43
2023-05-12T07:18:19.148Z,77.90
2023-05-12T07:20:45.517Z,77.13
2023-05-12T07:23:12.509Z,77.57
2023-05-12T07:25:38.955Z,77.15
2023-05-12T07:28:05.427Z,77.18
2023-05-12T07:30:31.862Z,77.09
2023-05-12T07:32:58.215Z,77.22
2023-05-12T07:35:24.537Z,77.25
2023-05-12T07:37:50.843Z,76.77
2023-05-12T07:40:17.234Z,76.62
2023-05-12T07:42:43.555Z,76.79
2023-05-12T07:45:10.226Z,76.39
2023-05-12T07:47:36.580Z,76.21
2023-05-12T07:50:03.128Z,75.65
2023-05-12T07:52:29.412Z,75.79
2023-05-12T07:54:56.703Z,75.82
2023-05-12T07:57:23.277Z,76.49
2023-05-12T07:59:49.691Z,76.33
2023-05-12T08:02:16.066Z,75.99
2023-05-12T08:04:44.380Z,75.65
2023-05-12T08:07:10.928Z,75.35
2023-05-12T08:09:37.215Z,75.82
2023-05-12T08:12:03.739Z,75.13
2023-05-12T08:14:30.032Z,74.48
2023-05-12T08:16:56.413Z,74.82
2023-05-12T08:19:22.754Z,74.27
2023-05-12T08:21:49.051Z,73.12
2023-05-12T08:24:15.368Z,73.75
2023-05-12T08:26:41.682Z,73.83
2023-05-12T08:29:07.999Z,71.64
2023-05-12T08:31:34.456Z,72.25
2023-05-12T08:34:09.761Z,73.34
2023-05-12T08:36:37.950Z,71.71
2023-05-12T08:39:04.442Z,70.75
2023-05-12T08:41:33.468Z,71.03
2023-05-12T08:44:00.258Z,69.68
2023-05-12T08:46:26.735Z,69.47
2023-05-12T08:48:53.856Z,68.37
2023-05-12T08:51:20.818Z,68.71
2023-05-12T08:53:47.629Z,68.42
2023-05-12T08:58:46.879Z,66.39
2023-05-12T09:01:13.576Z,67.14
2023-05-12T09:03:40.103Z,67.47
2023-05-12T09:06:07.210Z,66.17
2023-05-12T09:08:34.029Z,67.29
2023-05-12T09:11:01.112Z,67.08
2023-05-12T09:13:38.591Z,66.91
2023-05-12T09:16:11.155Z,68.34
2023-05-12T09:18:55.256Z,68.65
2023-05-12T09:21:22.259Z,68.93
2023-05-12T09:23:52.966Z,69.50
2023-05-12T09:26:19.462Z,70.35
2023-05-12T09:28:45.761Z,70.55
2023-05-12T09:31:20.182Z,69.72
2023-05-12T09:33:46.637Z,70.58
2023-05-12T09:36:23.870Z,71.41
2023-05-12T09:39:06.399Z,69.83
2023-05-12T09:41:44.146Z,69.87
2023-05-12T09:44:14.692Z,69.83
2023-05-12T09:46:41.032Z,69.99
2023-05-12T09:49:07.367Z,70.16
2023-05-12T09:51:33.760Z,69.84
2023-05-12T09:54:00.811Z,68.78
2023-05-12T09:56:28.865Z,69.14
2023-05-12T09:58:56.518Z,68.34
2023-05-12T10:01:24.250Z,68.64
2023-05-12T10:03:58.228Z,67.61
2023-05-12T10:06:33.216Z,68.15
2023-05-12T10:09:16.027Z,67.15
2023-05-12T10:11:44.003Z,66.76
2023-05-12T10:14:10.703Z,64.18
2023-05-12T10:16:38.408Z,64.37
2023-05-12T10:19:05.834Z,64.50
2023-05-12T10:21:34.413Z,63.51
2023-05-12T10:24:03.588Z,64.90
2023-05-12T10:26:32.326Z,63.86
2023-05-12T10:28:59.281Z,62.77
2023-05-12T10:31:26.693Z,63.06
2023-05-12T10:34:01.084Z,63.14
2023-05-12T10:36:27.664Z,61.68
2023-05-12T10:38:54.781Z,62.66
2023-05-12T10:41:31.291Z,62.66
2023-05-12T10:43:57.826Z,65.10
2023-05-12T10:46:24.334Z,64.22
2023-05-12T10:49:10.586Z,65.13
2023-05-12T10:51:42.904Z,64.63
2023-05-12T10:54:11.587Z,65.81
2023-05-12T10:56:38.141Z,64.78
2023-05-12T10:59:19.747Z,63.91
2023-05-12T11:02:13.451Z,64.40
2023-05-12T11:04:48.288Z,65.39
2023-05-12T11:07:16.802Z,65.79
2023-05-12T11:09:56.709Z,66.31
2023-05-12T11:12:25.995Z,66.63
2023-05-12T11:14:52.450Z,67.31
2023-05-12T11:17:18.812Z,63.85
2023-05-12T11:19:47.468Z,64.26
2023-05-12T11:22:16.327Z,65.77
2023-05-12T11:24:42.921Z,65.96
2023-05-12T11:27:14.830Z,65.78
2023-05-12T11:29:41.672Z,65.54
2023-05-12T11:32:11.708Z,65.54
2023-05-12T11:34:38.891Z,65.20
2023-05-12T11:37:05.527Z,65.74
2023-05-12T11:39:32.281Z,65.83
2023-05-12T11:42:12.911Z,65.28
2023-05-12T11:44:49.851Z,67.05
2023-05-12T11:47:17.239Z,65.80
2023-05-12T11:49:47.516Z,67.03
2023-05-12T11:52:14.146Z,66.02
2023-05-12T11:54:48.203Z,64.91
2023-05-12T11:57:33.881Z,65.28
2023-05-12T12:00:02.814Z,65.20
2023-05-12T12:02:29.380Z,64.19
2023-05-12T12:04:56.185Z,64.04
2023-05-12T12:07:36.374Z,65.69
2023-05-12T12:10:16.821Z,66.70
2023-05-12T12:12:44.255Z,68.31
2023-05-12T12:15:11.295Z,68.71
2023-05-12T12:17:38.173Z,69.49
2023-05-12T12:20:05.152Z,69.15
2023-05-12T12:22:31.450Z,69.57
2023-05-12T12:24:57.782Z,70.29
2023-05-12T12:27:24.099Z,70.18
2023-05-12T12:29:50.368Z,70.26
2023-05-12T12:32:16.673Z,70.62
2023-05-12T12:34:43.094Z,70.65
2023-05-12T12:37:09.487Z,69.86
2023-05-12T12:39:35.907Z,68.84
2023-05-12T12:42:02.489Z,69.08
2023-05-12T12:44:28.902Z,68.55
2023-05-12T12:46:55.295Z,68.16
2023-05-12T12:49:21.581Z,68.51
2023-05-12T12:51:48.152Z,68.53
2023-05-12T12:54:14.736Z,66.93
2023-05-12T12:56:41.168Z,66.32
2023-05-12T12:59:07.572Z,67.45
2023-05-12T13:01:34.024Z,66.88
2023-05-12T13:04:00.511Z,68.29
2023-05-12T13:06:27.189Z,68.13
2023-05-12T13:08:53.602Z,66.82
2023-05-12T13:11:20.049Z,67.42
2023-05-12T13:13:46.346Z,67.61
2023-05-12T13:16:12.659Z,67.96
2023-05-12T13:18:38.993Z,66.22
2023-05-12T13:21:05.553Z,67.35
2023-05-12T13:23:32.007Z,66.73
2023-05-12T13:25:58.491Z,66.53
2023-05-12T13:28:24.795Z,68.22
2023-05-12T13:30:54.468Z,67.75
2023-05-12T13:33:21.257Z,68.32
2023-05-12T13:35:47.559Z,68.33
2023-05-12T13:38:13.963Z,68.19
2023-05-12T13:40:40.301Z,67.41
2023-05-12T13:43:06.584Z,67.86
2023-05-12T13:45:32.891Z,67.92
2023-05-12T13:47:59.190Z,67.62
2023-05-12T13:50:25.734Z,68.12
2023-05-12T13:52:52.022Z,68.11
2023-05-12T13:55:21.408Z,68.19
2023-05-12T13:57:48.225Z,68.27
2023-05-12T14:00:14.947Z,68.43
2023-05-12T14:02:41.333Z,67.56
2023-05-12T14:05:08.303Z,68.36
2023-05-12T14:07:34.646Z,68.08
2023-05-12T14:10:01.150Z,68.28
2023-05-12T14:12:27.779Z,68.24
2023-05-12T14:14:54.773Z,68.91
2023-05-12T14:17:24.477Z,69.53
2023-05-12T14:19:50.779Z,68.73
2023-05-12T14:22:25.343Z,68.77
2023-05-12T14:24:52.768Z,68.89
2023-05-12T14:27:19.094Z,68.89
2023-05-12T14:29:45.396Z,68.34
2023-05-12T14:32:11.823Z,68.48
2023-05-12T14:34:38.151Z,67.44
2023-05-12T14:37:04.649Z,68.13
2023-05-12T14:39:31.043Z,68.19
2023-05-12T14:41:57.455Z,68.08
2023-05-12T14:44:23.783Z,67.38
2023-05-12T14:46:50.098Z,66.15
2023-05-12T14:49:16.503Z,66.55
2023-05-12T14:51:42.785Z,66.12
2023-05-12T14:54:21.910Z,66.19
2023-05-12T14:56:51.492Z,66.51
2023-05-12T14:59:17.808Z,66.30
2023-05-12T15:01:44.221Z,65.57
2023-05-12T15:04:10.701Z,65.69
2023-05-12T15:06:36.970Z,65.07
2023-05-12T15:09:03.780Z,65.82
2023-05-12T15:11:30.188Z,67.10
2023-05-12T15:13:56.586Z,67.08
2023-05-12T15:16:22.916Z,66.68
2023-05-12T15:18:49.228Z,66.57
2023-05-12T15:21:15.615Z,66.80
2023-05-12T15:23:41.898Z,65.89
2023-05-12T15:26:27.040Z,65.27
2023-05-12T15:28:54.477Z,65.75
2023-05-12T15:31:21.006Z,64.62
2023-05-12T15:33:47.361Z,63.62
2023-05-12T15:36:13.899Z,63.18
2023-05-12T15:38:40.178Z,63.52
2023-05-12T15:41:06.573Z,62.04
2023-05-12T15:43:32.888Z,62.61
2023-05-12T15:45:59.327Z,60.71
2023-05-12T15:48:25.747Z,61.10
2023-05-12T15:50:52.182Z,61.34
2023-05-12T15:53:18.494Z,61.37
2023-05-12T15:55:44.781Z,61.44
2023-05-12T15:58:11.206Z,61.96
2023-05-12T16:00:37.779Z,60.38
2023-05-12T16:03:04.182Z,60.81
2023-05-12T16:05:30.563Z,61.65
2023-05-12T16:07:56.959Z,60.61
2023-05-12T16:10:23.240Z,60.38
2023-05-12T16:12:49.549Z,60.24
2023-05-12T16:15:15.918Z,59.39
2023-05-12T16:17:42.216Z,59.05
2023-05-12T16:20:09.048Z,58.49
2023-05-12T16:22:35.413Z,58.98
2023-05-12T16:25:01.737Z,59.06
2023-05-12T16:27:28.018Z,59.40
2023-05-12T16:29:54.494Z,59.73
2023-05-12T16:32:20.868Z,59.25
2023-05-12T16:34:47.166Z,60.39
2023-05-12T16:37:13.537Z,60.72
2023-05-12T16:39:39.878Z,60.35
2023-05-12T16:42:06.610Z,60.80
2023-05-12T16:44:32.935Z,61.55
2023-05-12T16:46:59.208Z,61.22
2023-05-12T16:49:25.484Z,61.61
2023-05-12T16:51:51.833Z,61.40
2023-05-12T16:54:18.145Z,61.72
2023-05-12T16:56:44.446Z,61.61
2023-05-12T16:59:10.943Z,61.69
2023-05-12T17:01:37.305Z,61.93
2023-05-12T17:04:03.692Z,62.53
2023-05-12T17:06:30.159Z,61.89
2023-05-12T17:08:56.601Z,61.97
2023-05-12T17:11:23.227Z,61.90
2023-05-12T17:13:49.528Z,62.25
2023-05-12T17:16:16.041Z,63.03
2023-05-12T17:21:11.740Z,63.57
2023-05-12T17:23:38.089Z,63.04
2023-05-12T17:26:04.646Z,62.68
2023-05-12T17:28:30.986Z,62.82
2023-05-12T17:30:57.415Z,62.64
2023-05-12T17:33:23.779Z,62.83
2023-05-12T17:36:03.901Z,63.32
2023-05-12T17:38:36.430Z,62.93
2023-05-12T17:41:02.901Z,62.91
2023-05-12T17:43:29.385Z,62.94
2023-05-12T17:45:56.488Z,62.50
2023-05-12T17:48:22.867Z,62.07
2023-05-12T17:50:49.214Z,62.00
2023-05-12T17:53:15.555Z,62.06
2023-05-12T17:55:41.843Z,61.60
2023-05-12T17:58:08.219Z,61.88
2023-05-12T18:00:34.544Z,61.83
2023-05-12T18:03:01.001Z,61.49
2023-05-12T18:05:27.424Z,61.88
2023-05-12T18:07:53.757Z,62.28
2023-05-12T18:10:20.114Z,62.18
2023-05-12T18:12:46.453Z,62.22
2023-05-12T18:15:12.749Z,62.09
2023-05-12T18:17:39.162Z,62.07
2023-05-12T18:20:06.301Z,62.12
2023-05-12T18:22:32.626Z,61.86
2023-05-12T18:24:58.965Z,62.15
2023-05-12T18:27:25.334Z,62.38
2023-05-12T18:29:51.635Z,62.51
2023-05-12T18:32:17.980Z,63.13
2023-05-12T18:34:44.315Z,63.36
2023-05-12T18:37:11.141Z,63.54
2023-05-12T18:39:37.565Z,63.82
2023-05-12T18:42:04.093Z,64.28
2023-05-12T18:44:30.476Z,64.33
2023-05-12T18:46:56.875Z,64.99
2023-05-12T18:49:23.270Z,64.43
2023-05-12T18:51:49.648Z,64.78
2023-05-12T18:54:15.981Z,64.47
2023-05-12T18:56:42.319Z,64.94
2023-05-12T18:59:08.655Z,65.23
2023-05-12T19:01:35.191Z,65.18
2023-05-12T19:04:01.665Z,65.66
2023-05-12T19:06:28.060Z,65.41
2023-05-12T19:08:54.397Z,65.73
2023-05-12T19:11:20.706Z,65.99
2023-05-12T19:13:47.021Z,66.28
2023-05-12T19:16:13.466Z,66.69
2023-05-12T19:18:39.922Z,66.74
2023-05-12T19:21:06.416Z,66.54
2023-05-12T19:23:32.808Z,66.96
2023-05-12T19:25:59.637Z,67.61
2023-05-12T19:28:25.972Z,68.20
2023-05-12T19:30:52.504Z,67.85
2023-05-12T19:33:18.892Z,68.41
2023-05-12T19:35:45.332Z,68.94
2023-05-12T19:38:11.711Z,69.27
2023-05-12T19:40:38.150Z,68.87
2023-05-12T19:43:04.681Z,68.84
2023-05-12T19:45:31.084Z,68.83
2023-05-12T19:47:57.522Z,69.78
2023-05-12T19:50:24.004Z,69.43
2023-05-12T19:52:50.719Z,69.61
2023-05-12T19:55:17.122Z,70.37
2023-05-12T19:57:43.511Z,70.89
2023-05-12T20:00:10.459Z,72.46
2023-05-12T20:02:37.106Z,70.73
2023-05-12T20:05:03.936Z,70.82
2023-05-12T20:07:30.292Z,71.26
2023-05-12T20:09:56.720Z,70.75
2023-05-12T20:12:23.079Z,70.84
2023-05-12T20:14:49.442Z,70.59
2023-05-12T20:17:15.783Z,70.78
2023-05-12T20:19:42.176Z,70.30
2023-05-12T20:22:08.474Z,70.96
2023-05-12T20:24:34.788Z,70.16
2023-05-12T20:27:01.140Z,71.32
2023-05-12T20:29:27.492Z,70.94
2023-05-12T20:31:54.189Z,71.49
2023-05-12T20:34:20.798Z,70.96
2023-05-12T20:36:47.255Z,71.35
2023-05-12T20:39:14.388Z,71.12
2023-05-12T20:41:42.433Z,71.78
2023-05-12T20:44:09.334Z,71.42
2023-05-12T20:46:38.243Z,71.18
2023-05-12T20:49:06.531Z,71.87
2023-05-12T20:51:32.899Z,71.82
2023-05-12T20:53:59.276Z,71.80
2023-05-12T20:56:25.726Z,71.57
2023-05-12T20:58:52.308Z,71.64
2023-05-12T21:01:18.975Z,71.43
2023-05-12T21:03:45.400Z,72.17
2023-05-12T21:06:11.829Z,72.02
2023-05-12T21:08:38.566Z,72.31
2023-05-12T21:11:13.406Z,72.49
2023-05-12T21:13:39.891Z,73.93
2023-05-12T21:16:06.249Z,73.87
2023-05-12T21:18:32.642Z,73.76
2023-05-12T21:20:58.997Z,73.48
2023-05-12T21:23:25.389Z,73.69
2023-05-12T21:25:55.364Z,73.88
2023-05-12T21:28:21.680Z,73.56
2023-05-12T21:30:47.980Z,72.91
2023-05-12T21:33:14.492Z,74.40
2023-05-12T21:35:40.759Z,74.25
2023-05-12T21:38:07.068Z,75.04
2023-05-12T21:40:33.371Z,73.76
2023-05-12T21:42:59.690Z,74.22
2023-05-12T21:45:26.080Z,73.42
2023-05-12T21:47:52.598Z,74.33
2023-05-12T21:50:19.109Z,73.01
2023-05-12T21:52:45.487Z,73.52
2023-05-12T21:55:11.932Z,73.56
2023-05-12T21:57:38.617Z,73.42
2023-05-12T22:00:06.625Z,72.93
2023-05-12T22:02:33.392Z,73.55
2023-05-12T22:04:59.702Z,73.17
2023-05-12T22:07:25.994Z,74.04
2023-05-12T22:09:52.464Z,73.64
2023-05-12T22:12:18.774Z,73.36
2023-05-12T22:14:45.210Z,73.56
2023-05-12T22:17:11.496Z,74.02
2023-05-12T22:19:37.987Z,73.27
2023-05-12T22:22:04.508Z,73.45
2023-05-12T22:24:30.797Z,74.36
2023-05-12T22:26:57.109Z,73.39
2023-05-12T22:29:23.578Z,73.98
2023-05-12T22:31:49.908Z,74.10
2023-05-12T22:34:16.278Z,74.57
2023-05-12T22:36:42.669Z,74.37
2023-05-12T22:39:08.989Z,75.48
2023-05-12T22:41:35.440Z,75.32
2023-05-12T22:44:01.722Z,75.53
2023-05-12T22:46:28.098Z,75.49
2023-05-12T22:48:54.583Z,75.24
2023-05-12T22:51:20.874Z,74.63
2023-05-12T22:53:47.193Z,74.82
2023-05-12T22:56:13.494Z,75.93
2023-05-12T22:58:39.845Z,76.99
2023-05-12T23:01:06.329Z,76.07
2023-05-12T23:03:32.723Z,76.86
2023-05-12T23:05:59.026Z,76.46
2023-05-12T23:08:25.316Z,76.92
2023-05-12T23:10:51.586Z,76.87
2023-05-12T23:13:17.982Z,75.69
2023-05-12T23:15:44.320Z,76.87
2023-05-12T23:18:10.739Z,76.59
2023-05-12T23:20:37.063Z,76.67
2023-05-12T23:23:03.373Z,76.12
2023-05-12T23:25:29.952Z,76.18
2023-05-12T23:27:56.327Z,77.34
2023-05-12T23:30:22.850Z,75.76
2023-05-12T23:32:49.422Z,76.13
2023-05-12T23:35:15.768Z,75.73
2023-05-12T23:37:42.059Z,75.01
2023-05-12T23:40:09.158Z,76.53
2023-05-12T23:42:35.446Z,75.42
2023-05-12T23:45:01.774Z,75.85
2023-05-12T23:47:28.110Z,75.60
2023-05-12T23:49:54.554Z,75.59
2023-05-12T23:52:20.813Z,76.56
2023-05-12T23:54:47.126Z,76.09
2023-05-12T23:57:13.463Z,75.72
2023-05-12T23:59:39.908Z,75.93
